Terminal Aerodrome Forecast
Issued by NWS Shreveport, LA

Home | Current Version | Previous Version | Text Only | Print | Product List | Glossary On
Versions: 1 2 3 4 5 6 7 8 9 10 11 12 13
000
FTUS44 KSHV 041734
TAFTYR
TAF
KTYR 041734Z 0418/0518 16010G18KT P6SM SCT050 SCT250
     FM050000 14007KT P6SM SCT060 SCT250
     FM051000 13005KT P6SM OVC025
     FM051100 13007KT 5SM BR BKN015 OVC025
      TEMPO 0513/0515 14010G15KT 3SM BR OVC007
     FM051600 14012G19KT P6SM OVC015=

USA.gov is the U.S. government's official web portal to all federal, state and local government web resources and services.